Terminal Aerodrome Forecast
Issued by NWS Wichita, KS

Home | Current Version | Previous Version | Graphics & Text | Print | Product List | Glossary On
Versions: 1 2 3 4 5 6 7 8 9 10 11 12 13 14
000
FTUS43 KICT 192340
TAFICT
TAF
KICT 192340Z 2000/2024 18022G30KT P6SM SKC
     FM200300 17017G25KT P6SM SKC WS020/19052KT
     FM201000 19013KT P6SM SKC
     FM201200 21004KT P6SM SKC
     FM201500 35013KT P6SM SKC=

USA.gov is the U.S. government's official web portal to all federal, state and local government web resources and services.